Time;durP1;ratioP1;P1;durP2;ratioP2;P2;SDS_P1;SDS_P2;PMS_P1;PMS_P2;Temp;Humidity;BMP_temperature;BMP_pressure;BME280_temperature;BME280_humidity;BME280_pressure;Samples;Min_cycle;Max_cycle;Signal;HPM_P1;HPM_P2
2021/05/15 00:00:28;;;;;;;2.70;1.10;;;;;;;12.83;56.16;96045.53;5077249;28;20898;-68
2021/05/15 00:02:55;;;;;;;1.93;1.10;;;;;;;12.96;55.32;96044.81;5088806;28;20174;-68
2021/05/15 00:05:21;;;;;;;3.17;1.10;;;;;;;12.99;55.63;96047.03;5066811;28;20443;-68
2021/05/15 00:07:46;;;;;;;2.17;1.10;;;;;;;12.88;55.64;96044.94;5081203;28;20439;-69
2021/05/15 00:10:12;;;;;;;1.70;0.93;;;;;;;12.77;56.38;96042.88;5085856;28;20186;-69
2021/05/15 00:12:38;;;;;;;1.10;1.00;;;;;;;12.81;56.13;96044.13;5085343;28;20287;-69
2021/05/15 00:15:06;;;;;;;1.87;1.13;;;;;;;12.65;56.55;96040.78;5088196;28;20485;-68
2021/05/15 00:17:32;;;;;;;1.07;0.90;;;;;;;12.60;56.09;96037.94;5086886;28;20611;-67
2021/05/15 00:19:58;;;;;;;1.90;1.17;;;;;;;12.58;56.94;96043.38;5094967;28;20519;-69
2021/05/15 00:22:23;;;;;;;1.00;0.90;;;;;;;12.80;55.95;96045.13;5089032;28;20491;-68
2021/05/15 00:24:49;;;;;;;1.47;1.03;;;;;;;12.74;55.74;96037.00;5089801;28;20189;-68
2021/05/15 00:27:14;;;;;;;1.20;1.00;;;;;;;12.33;56.94;96043.03;5098413;28;20246;-67
2021/05/15 00:29:40;;;;;;;1.10;0.90;;;;;;;12.60;56.08;96032.69;5085541;28;20319;-68
2021/05/15 00:32:06;;;;;;;1.90;1.00;;;;;;;12.43;56.48;96033.00;5098392;28;20639;-69
2021/05/15 00:34:31;;;;;;;1.10;0.90;;;;;;;12.46;56.00;96023.91;5096472;28;20311;-68
2021/05/15 00:36:57;;;;;;;1.57;1.03;;;;;;;12.37;56.18;96036.38;5093530;28;20202;-70
2021/05/15 00:39:22;;;;;;;1.87;0.90;;;;;;;12.42;56.02;96033.16;5092074;28;20178;-69
2021/05/15 00:41:48;;;;;;;0.90;0.80;;;;;;;12.35;55.83;96030.50;5073848;28;20542;-69
2021/05/15 00:44:28;;;;;;;1.20;0.73;;;;;;;12.22;56.48;96031.22;5069609;28;20849;-67
2021/05/15 00:46:54;;;;;;;1.97;0.90;;;;;;;12.18;56.18;96027.34;5092483;28;20439;-69
2021/05/15 00:49:20;;;;;;;1.83;1.00;;;;;;;12.13;56.51;96025.31;5093400;28;20412;-69
2021/05/15 00:51:45;;;;;;;1.17;0.93;;;;;;;12.17;56.40;96025.72;5095627;28;20501;-69
2021/05/15 00:54:12;;;;;;;2.83;0.90;;;;;;;11.60;58.42;96024.81;5097607;28;20788;-69
2021/05/15 00:56:38;;;;;;;2.33;0.90;;;;;;;11.98;57.18;96016.69;5091724;28;20177;-69
2021/05/15 00:59:03;;;;;;;1.30;0.90;;;;;;;11.75;57.85;96012.44;5091942;28;20936;-69
2021/05/15 01:01:30;;;;;;;1.40;0.80;;;;;;;11.76;57.79;96013.28;5093209;28;20510;-68
2021/05/15 01:03:56;;;;;;;1.97;0.80;;;;;;;11.44;58.80;96016.22;5093057;28;20189;-68
2021/05/15 01:06:21;;;;;;;3.27;1.10;;;;;;;11.83;57.75;96009.72;5084422;28;20419;-69
2021/05/15 01:08:47;;;;;;;1.30;0.90;;;;;;;11.55;58.32;96008.84;5092531;28;20284;-68
2021/05/15 01:11:14;;;;;;;1.40;1.10;;;;;;;11.49;58.95;96010.41;5091637;28;20209;-69
2021/05/15 01:13:49;;;;;;;3.43;0.87;;;;;;;11.85;57.53;96012.13;5072502;28;20564;-69
2021/05/15 01:16:15;;;;;;;1.40;0.97;;;;;;;11.63;58.34;96011.34;5091238;28;20412;-68
2021/05/15 01:18:40;;;;;;;1.30;0.80;;;;;;;11.40;59.27;96024.66;5092972;28;21010;-69
2021/05/15 01:21:06;;;;;;;2.63;1.10;;;;;;;11.32;59.39;96012.47;5092572;28;20196;-68
2021/05/15 01:23:32;;;;;;;1.67;0.90;;;;;;;11.92;57.53;96013.00;5092128;28;20186;-68
2021/05/15 01:25:57;;;;;;;2.60;1.00;;;;;;;11.52;58.37;96018.72;5092269;28;20515;-69
2021/05/15 01:28:28;;;;;;;2.80;1.10;;;;;;;11.77;57.89;96018.31;5086153;28;20213;-67
2021/05/15 01:30:54;;;;;;;1.40;0.90;;;;;;;11.79;58.10;96018.97;5085016;28;20177;-68
2021/05/15 01:33:19;;;;;;;1.13;1.03;;;;;;;11.65;58.87;96019.84;5076034;28;20496;-69
2021/05/15 01:35:45;;;;;;;1.00;0.90;;;;;;;11.27;59.95;96015.66;5092689;28;20663;-68
2021/05/15 01:38:10;;;;;;;3.43;1.20;;;;;;;11.75;58.15;96019.53;5091781;28;20280;-69
2021/05/15 01:40:36;;;;;;;1.83;0.90;;;;;;;11.61;58.52;96010.72;5092519;28;20632;-68
2021/05/15 01:43:01;;;;;;;2.53;0.97;;;;;;;11.64;58.58;96010.34;5077956;28;20183;-70
2021/05/15 01:45:27;;;;;;;1.30;0.90;;;;;;;11.72;58.28;96018.06;5091099;28;20185;-69
2021/05/15 01:47:53;;;;;;;1.53;1.07;;;;;;;11.86;58.05;96020.81;5090662;28;20198;-68
2021/05/15 01:50:19;;;;;;;1.67;1.00;;;;;;;11.58;58.55;96024.22;5091065;28;20177;-68
2021/05/15 01:52:44;;;;;;;1.40;1.10;;;;;;;11.20;59.79;96020.81;5091454;28;20201;-69
2021/05/15 01:55:21;;;;;;;1.00;0.90;;;;;;;11.45;59.26;96023.09;5090825;28;20264;-69
2021/05/15 01:57:48;;;;;;;1.77;1.00;;;;;;;11.71;58.18;96011.22;5087699;28;20197;-69
2021/05/15 02:00:14;;;;;;;1.37;1.03;;;;;;;11.86;57.58;96013.75;5089752;28;20797;-69
2021/05/15 02:02:40;;;;;;;1.10;1.00;;;;;;;11.64;58.55;96010.34;5091229;28;20431;-66
2021/05/15 02:05:06;;;;;;;2.50;1.13;;;;;;;11.55;59.00;96007.03;5083055;28;20424;-68
2021/05/15 02:07:31;;;;;;;1.77;0.90;;;;;;;11.73;58.62;96013.66;5090240;28;20198;-69
2021/05/15 02:09:57;;;;;;;1.80;1.10;;;;;;;11.44;59.52;96005.72;5090457;28;20952;-69
2021/05/15 02:12:22;;;;;;;1.60;1.00;;;;;;;11.50;59.26;95993.66;5085727;28;20198;-68
2021/05/15 02:14:48;;;;;;;1.87;0.90;;;;;;;11.32;60.13;96002.78;5082391;28;20260;-67
2021/05/15 02:17:14;;;;;;;1.33;1.17;;;;;;;11.13;60.28;96004.19;5091046;28;20336;-69
2021/05/15 02:19:39;;;;;;;0.90;0.80;;;;;;;10.66;62.29;96002.81;5091017;28;20178;-68
2021/05/15 02:22:05;;;;;;;1.23;1.00;;;;;;;10.70;62.63;95998.84;5090579;28;20174;-67
2021/05/15 02:24:30;;;;;;;1.43;1.03;;;;;;;11.00;62.01;95993.53;5090344;28;20178;-69
2021/05/15 02:26:56;;;;;;;3.17;0.90;;;;;;;10.71;62.70;95993.44;5089519;28;20201;-70
2021/05/15 02:29:22;;;;;;;2.33;1.00;;;;;;;11.12;61.32;95986.03;5085513;28;20218;-68
2021/05/15 02:31:47;;;;;;;1.60;1.07;;;;;;;11.13;61.21;95993.69;5090903;28;20679;-68
2021/05/15 02:34:13;;;;;;;1.73;1.10;;;;;;;11.02;62.02;95981.91;5090774;28;20173;-68
2021/05/15 02:36:38;;;;;;;1.23;1.10;;;;;;;11.10;61.73;95978.31;5078790;28;20183;-68
2021/05/15 02:39:04;;;;;;;2.30;1.33;;;;;;;11.41;60.18;95973.78;5079492;28;20604;-68
2021/05/15 02:41:30;;;;;;;1.47;1.03;;;;;;;10.80;62.75;95975.78;5059585;28;20253;-69
2021/05/15 02:43:56;;;;;;;1.63;1.17;;;;;;;11.35;60.83;95962.22;5069842;28;20180;-68
2021/05/15 02:46:21;;;;;;;1.10;0.90;;;;;;;11.15;61.83;95969.94;5056236;28;20668;-69
2021/05/15 02:48:47;;;;;;;1.20;0.90;;;;;;;11.51;60.05;95969.84;5072871;28;20205;-68
2021/05/15 02:51:12;;;;;;;1.83;1.40;;;;;;;11.47;60.08;95979.09;5072707;28;20897;-68
2021/05/15 02:53:38;;;;;;;1.40;1.30;;;;;;;11.72;59.09;95970.81;5090722;28;20808;-67
2021/05/15 02:56:04;;;;;;;2.13;1.20;;;;;;;11.90;58.60;95974.81;5089272;28;20178;-68
2021/05/15 02:58:29;;;;;;;2.80;1.00;;;;;;;11.91;58.69;95976.44;5060023;28;20288;-69
2021/05/15 03:00:55;;;;;;;2.87;1.40;;;;;;;11.91;58.73;95979.06;5094768;28;20174;-69
2021/05/15 03:03:22;;;;;;;2.93;1.40;;;;;;;11.85;58.86;95978.00;5085719;28;20550;-69
2021/05/15 03:05:48;;;;;;;2.43;1.20;;;;;;;11.78;58.63;95974.53;5091540;28;20268;-68
2021/05/15 03:08:13;;;;;;;2.00;1.00;;;;;;;11.68;58.83;95969.59;5094599;28;20442;-70
2021/05/15 03:10:39;;;;;;;2.23;1.10;;;;;;;11.63;58.91;95966.72;5094410;28;20663;-68
2021/05/15 03:13:04;;;;;;;2.13;1.30;;;;;;;11.51;59.49;95964.63;5080748;28;20190;-69
2021/05/15 03:15:30;;;;;;;1.90;1.27;;;;;;;11.50;59.43;95963.00;5089357;28;20717;-68
2021/05/15 03:17:56;;;;;;;2.00;1.20;;;;;;;11.37;59.76;95962.88;5090686;28;20203;-68
2021/05/15 03:20:24;;;;;;;3.93;1.30;;;;;;;11.44;59.57;95966.38;5094245;28;20181;-69
2021/05/15 03:22:50;;;;;;;1.20;1.10;;;;;;;11.26;60.01;95966.81;5074808;28;20429;-69
2021/05/15 03:25:17;;;;;;;2.33;1.00;;;;;;;11.07;60.77;95976.09;5084861;28;20437;-68
2021/05/15 03:27:42;;;;;;;1.50;1.40;;;;;;;11.28;59.89;95964.00;5090703;28;20440;-67
2021/05/15 03:30:09;;;;;;;1.53;1.27;;;;;;;11.15;60.27;95965.50;5082813;28;20428;-66
2021/05/15 03:32:36;;;;;;;2.60;1.60;;;;;;;11.26;59.82;95960.75;5076598;28;20258;-67
2021/05/15 03:35:03;;;;;;;1.97;1.23;;;;;;;11.09;60.01;95966.22;5075696;28;20417;-68
2021/05/15 03:37:28;;;;;;;2.60;1.10;;;;;;;11.21;60.38;95956.06;5074229;28;20445;-69
2021/05/15 03:39:54;;;;;;;1.40;1.30;;;;;;;11.24;59.84;95962.72;5083056;28;20938;-69
2021/05/15 03:42:20;;;;;;;1.43;1.20;;;;;;;11.21;59.71;95951.63;5077391;28;20166;-68
2021/05/15 03:44:45;;;;;;;1.30;1.20;;;;;;;11.10;60.34;95962.59;5078117;28;20246;-68
2021/05/15 03:47:11;;;;;;;2.40;1.40;;;;;;;11.24;60.15;95958.31;5093450;28;20233;-69
2021/05/15 03:49:37;;;;;;;1.40;1.30;;;;;;;11.14;60.30;95965.69;5076432;28;20530;-69
2021/05/15 03:52:02;;;;;;;2.27;1.50;;;;;;;11.25;60.16;95966.97;5073564;28;20271;-68
2021/05/15 03:54:28;;;;;;;2.70;1.50;;;;;;;11.28;59.97;95964.78;5078701;28;20830;-68
2021/05/15 03:56:53;;;;;;;2.73;1.30;;;;;;;11.34;59.92;95958.00;5072187;28;20716;-67
2021/05/15 03:59:19;;;;;;;1.83;1.50;;;;;;;11.39;59.74;95966.13;5077293;28;20561;-67
2021/05/15 04:01:46;;;;;;;1.93;1.37;;;;;;;11.44;59.61;95953.25;5083541;28;20209;-68
2021/05/15 04:04:12;;;;;;;2.20;1.17;;;;;;;11.47;59.58;95955.47;5073871;28;20194;-69
2021/05/15 04:06:38;;;;;;;2.30;1.10;;;;;;;11.56;59.30;95965.88;5075254;28;20429;-68
2021/05/15 04:09:04;;;;;;;2.40;1.50;;;;;;;11.59;59.69;95962.88;5071932;28;20772;-69
2021/05/15 04:11:38;;;;;;;1.43;1.07;;;;;;;11.65;59.28;95955.06;5073132;28;20202;-69
2021/05/15 04:14:26;;;;;;;2.03;1.40;;;;;;;11.66;59.23;95956.66;5072232;28;20577;-70
2021/05/15 04:19:32;;;;;;;1.77;1.63;;;;;;;11.62;58.87;95955.44;5063987;28;20830;-69
2021/05/15 04:21:58;;;;;;;1.53;1.20;;;;;;;11.67;59.01;95954.84;5072446;28;20404;-68
2021/05/15 04:24:25;;;;;;;2.60;1.80;;;;;;;11.57;59.40;95957.00;5071936;28;20174;-68
2021/05/15 04:26:56;;;;;;;2.03;1.33;;;;;;;11.55;59.57;95953.75;5071523;28;20287;-68
2021/05/15 04:29:22;;;;;;;1.40;1.30;;;;;;;11.71;59.18;95948.25;5071631;28;20788;-69
2021/05/15 04:31:48;;;;;;;1.27;1.17;;;;;;;11.86;58.70;95950.75;5064026;28;20540;-68
2021/05/15 04:34:15;;;;;;;1.60;1.30;;;;;;;11.86;58.74;95944.69;5078947;28;21560;-69
2021/05/15 04:36:41;;;;;;;2.33;1.33;;;;;;;11.86;58.68;95960.44;5072307;28;20444;-68
2021/05/15 04:39:07;;;;;;;1.13;1.03;;;;;;;11.92;58.26;95952.59;5071712;28;20413;-69
2021/05/15 04:41:32;;;;;;;1.53;1.40;;;;;;;12.08;58.19;95961.22;5072800;28;20178;-69
2021/05/15 04:43:58;;;;;;;2.80;1.03;;;;;;;11.92;58.52;95964.94;5071295;28;20516;-67
2021/05/15 04:46:24;;;;;;;3.10;1.10;;;;;;;12.09;57.96;95957.59;5059661;28;20170;-68
2021/05/15 04:48:49;;;;;;;1.70;1.20;;;;;;;12.16;57.96;95970.78;5084391;28;20602;-68
2021/05/15 04:51:15;;;;;;;1.60;1.50;;;;;;;12.21;57.84;95971.03;5074347;28;20225;-68
2021/05/15 04:53:40;;;;;;;1.77;1.40;;;;;;;11.90;58.39;95975.63;5086440;28;20189;-69
2021/05/15 04:56:09;;;;;;;2.90;1.27;;;;;;;12.30;57.68;95967.25;5073520;28;20197;-69
2021/05/15 04:58:35;;;;;;;1.67;1.20;;;;;;;12.23;57.69;95961.13;5078748;28;20221;-68
2021/05/15 05:01:01;;;;;;;2.17;1.87;;;;;;;12.14;57.77;95969.16;5069201;28;20430;-69
2021/05/15 05:03:26;;;;;;;1.40;1.00;;;;;;;12.46;57.38;95975.81;5076496;28;20416;-69
2021/05/15 05:05:52;;;;;;;3.70;1.17;;;;;;;12.52;56.46;95965.34;5085081;28;20614;-68
2021/05/15 05:08:18;;;;;;;1.10;0.93;;;;;;;12.40;56.75;95972.94;5072907;28;20743;-67
2021/05/15 05:10:43;;;;;;;1.30;1.20;;;;;;;12.13;57.66;95972.78;5080536;28;20182;-68
2021/05/15 05:13:09;;;;;;;2.17;1.10;;;;;;;12.08;57.36;95969.94;5073729;28;20224;-68
2021/05/15 05:15:34;;;;;;;1.57;1.30;;;;;;;12.62;56.01;95964.16;5071668;28;20182;-67
2021/05/15 05:18:00;;;;;;;1.90;1.17;;;;;;;12.67;56.26;95953.84;5072347;28;20206;-67
2021/05/15 05:20:26;;;;;;;1.70;1.40;;;;;;;12.70;56.20;95961.34;5088071;28;20186;-68
2021/05/15 05:22:52;;;;;;;1.40;1.03;;;;;;;13.23;54.46;95966.00;5072234;28;20267;-69
2021/05/15 05:25:19;;;;;;;8.03;1.37;;;;;;;13.34;53.53;95956.69;5073769;28;20635;-68
2021/05/15 05:27:47;;;;;;;2.33;1.17;;;;;;;13.26;53.88;95952.41;5076186;28;20452;-68
2021/05/15 05:30:18;;;;;;;1.20;0.93;;;;;;;13.45;53.54;95957.94;5070186;28;20508;-69
2021/05/15 05:32:44;;;;;;;1.47;1.10;;;;;;;13.10;54.36;95950.19;5064418;28;20453;-68
2021/05/15 05:35:11;;;;;;;2.33;1.27;;;;;;;13.41;53.68;95951.47;5070846;28;20512;-69
2021/05/15 05:37:36;;;;;;;1.10;1.00;;;;;;;13.64;52.54;95951.88;5070857;28;20432;-68
2021/05/15 05:40:06;;;;;;;2.27;0.90;;;;;;;13.72;52.51;95958.75;5074825;28;20576;-68
2021/05/15 05:42:32;;;;;;;1.10;0.90;;;;;;;13.24;52.99;95957.06;5090750;28;20181;-69
2021/05/15 05:44:58;;;;;;;2.70;0.90;;;;;;;13.42;53.04;95958.34;5091355;28;20420;-68
2021/05/15 05:47:23;;;;;;;1.57;1.00;;;;;;;13.75;52.42;95947.00;5091756;28;20545;-68
2021/05/15 05:49:49;;;;;;;1.87;1.50;;;;;;;13.70;51.78;95949.47;5090668;28;20186;-69
2021/05/15 05:52:15;;;;;;;1.00;0.90;;;;;;;13.63;51.47;95947.63;5091263;28;20205;-69
2021/05/15 05:54:41;;;;;;;0.93;0.83;;;;;;;13.30;52.43;95945.75;5088051;28;20185;-66
2021/05/15 05:57:07;;;;;;;4.17;1.20;;;;;;;13.55;52.02;95953.09;5070637;28;20338;-67
2021/05/15 05:59:33;;;;;;;1.13;0.90;;;;;;;13.00;53.64;95946.09;5091420;28;20903;-68
2021/05/15 06:01:58;;;;;;;1.33;0.97;;;;;;;13.25;52.78;95947.38;5089860;28;20749;-68
2021/05/15 06:04:24;;;;;;;1.00;0.90;;;;;;;13.36;52.75;95938.88;5082776;28;20178;-67
2021/05/15 06:06:50;;;;;;;1.03;0.90;;;;;;;13.56;51.53;95938.94;5090653;28;20268;-69
2021/05/15 06:09:18;;;;;;;2.90;0.90;;;;;;;13.49;51.72;95943.34;5082855;28;20181;-68
2021/05/15 06:11:44;;;;;;;1.10;1.00;;;;;;;13.43;52.30;95942.34;5091230;28;20197;-67
2021/05/15 06:14:10;;;;;;;1.87;0.90;;;;;;;13.61;51.47;95940.94;5074989;28;20420;-68
2021/05/15 06:16:35;;;;;;;2.30;0.80;;;;;;;14.16;50.26;95938.06;5092732;28;20593;-69
2021/05/15 06:19:01;;;;;;;1.10;0.90;;;;;;;14.42;49.38;95942.47;5091428;28;20198;-69
2021/05/15 06:21:26;;;;;;;1.83;0.80;;;;;;;14.71;48.97;95943.00;5090237;28;20204;-69
2021/05/15 06:23:52;;;;;;;1.53;0.87;;;;;;;15.00;48.30;95938.19;5090650;28;20186;-68
2021/05/15 06:26:18;;;;;;;2.13;0.83;;;;;;;15.12;47.59;95940.94;5090792;28;20215;-69
2021/05/15 06:28:43;;;;;;;1.50;0.80;;;;;;;15.40;47.36;95934.50;5084994;28;20221;-69
2021/05/15 06:31:09;;;;;;;1.10;0.80;;;;;;;15.81;46.29;95932.38;5091095;28;20216;-68
2021/05/15 06:33:35;;;;;;;2.40;0.70;;;;;;;15.12;47.72;95937.53;5094136;28;20547;-69
2021/05/15 06:36:01;;;;;;;1.10;0.80;;;;;;;15.54;47.25;95931.75;5095561;28;20190;-69
2021/05/15 06:38:27;;;;;;;1.00;0.90;;;;;;;14.20;50.07;95928.75;5094220;28;20526;-68
2021/05/15 06:40:53;;;;;;;1.13;1.03;;;;;;;15.16;48.27;95931.59;5089906;28;20593;-68
2021/05/15 06:43:19;;;;;;;1.47;1.00;;;;;;;15.72;47.08;95923.91;5094512;28;20177;-68
2021/05/15 06:45:44;;;;;;;3.63;1.27;;;;;;;14.63;49.73;95923.94;5094493;28;20178;-68
2021/05/15 06:48:10;;;;;;;1.10;0.80;;;;;;;15.69;46.93;95915.63;5095149;28;20202;-68
2021/05/15 06:50:36;;;;;;;1.93;0.90;;;;;;;15.09;48.16;95920.28;5095402;28;20531;-69
2021/05/15 06:53:01;;;;;;;1.00;0.90;;;;;;;15.71;46.85;95918.81;5094697;28;20258;-68
2021/05/15 06:55:28;;;;;;;2.50;1.27;;;;;;;15.33;47.45;95915.28;5094430;28;20182;-69
2021/05/15 06:57:53;;;;;;;1.00;0.80;;;;;;;15.33;47.92;95923.97;5093850;28;20605;-68
2021/05/15 07:00:21;;;;;;;1.13;0.90;;;;;;;15.53;47.40;95920.41;5086141;28;20431;-69
2021/05/15 07:02:47;;;;;;;2.60;0.97;;;;;;;15.52;47.15;95924.84;5093734;28;20209;-68
2021/05/15 07:05:12;;;;;;;1.80;0.87;;;;;;;15.72;46.53;95923.09;5094690;28;20451;-68
2021/05/15 07:07:38;;;;;;;1.37;0.93;;;;;;;15.65;46.68;95915.22;5094674;28;20519;-67
2021/05/15 07:10:04;;;;;;;3.83;1.00;;;;;;;15.76;46.46;95914.50;5076991;28;20183;-68
2021/05/15 07:12:29;;;;;;;1.50;0.90;;;;;;;15.45;47.13;95918.84;5087441;28;20232;-68
2021/05/15 07:14:55;;;;;;;2.50;0.90;;;;;;;14.40;50.14;95919.97;5092355;28;20429;-70
2021/05/15 07:17:27;;;;;;;2.03;1.30;;;;;;;14.14;50.54;95919.00;5093498;28;20234;-68
2021/05/15 07:19:53;;;;;;;3.40;0.90;;;;;;;13.80;51.48;95921.69;5093330;28;20250;-69
2021/05/15 07:22:22;;;;;;;1.43;1.20;;;;;;;13.85;51.34;95915.00;5090818;28;20496;-68
2021/05/15 07:24:49;;;;;;;2.27;0.93;;;;;;;14.27;50.52;95918.97;5089287;28;20489;-68
2021/05/15 07:27:15;;;;;;;1.23;1.13;;;;;;;14.01;51.53;95919.03;5094016;28;20496;-67
2021/05/15 07:29:41;;;;;;;1.70;0.90;;;;;;;14.52;50.44;95912.22;5080989;28;20830;-68
2021/05/15 07:32:07;;;;;;;1.83;1.00;;;;;;;14.98;48.87;95913.84;5092246;28;20550;-69
2021/05/15 07:34:32;;;;;;;1.10;0.87;;;;;;;14.62;50.14;95906.50;5094318;28;20190;-69
2021/05/15 07:36:58;;;;;;;1.90;1.10;;;;;;;14.98;49.25;95902.50;5093068;28;20246;-68
2021/05/15 07:39:23;;;;;;;1.90;0.97;;;;;;;15.54;47.25;95897.44;5082391;28;20717;-68
2021/05/15 07:41:50;;;;;;;1.83;1.20;;;;;;;15.95;46.56;95885.53;5091190;28;20185;-67
2021/05/15 07:44:16;;;;;;;1.50;1.00;;;;;;;16.01;46.41;95889.13;5093951;28;20182;-68
2021/05/15 07:46:42;;;;;;;1.07;0.97;;;;;;;15.95;46.38;95882.88;5101114;28;20431;-67
2021/05/15 07:49:07;;;;;;;7.83;2.40;;;;;;;14.99;48.94;95888.28;5080661;28;20724;-67
2021/05/15 07:51:33;;;;;;;1.60;0.90;;;;;;;15.13;48.50;95881.09;5094988;28;20770;-68
2021/05/15 07:53:58;;;;;;;1.47;1.10;;;;;;;15.71;46.75;95885.31;5091896;28;20492;-66
2021/05/15 07:56:24;;;;;;;1.80;1.00;;;;;;;15.30;47.47;95889.28;5092300;28;20178;-68
2021/05/15 07:58:50;;;;;;;3.50;1.10;;;;;;;15.22;47.73;95890.38;5094630;28;20808;-69
2021/05/15 08:01:15;;;;;;;1.77;1.10;;;;;;;14.89;48.03;95894.03;5088290;28;20174;-68
2021/05/15 08:03:41;;;;;;;1.97;1.10;;;;;;;14.57;49.53;95886.84;5095501;28;20182;-67
2021/05/15 08:06:07;;;;;;;1.40;1.20;;;;;;;15.77;46.09;95884.44;5093691;28;20178;-69
2021/05/15 08:08:33;;;;;;;1.70;0.93;;;;;;;15.16;47.24;95888.59;5091833;28;20198;-69
2021/05/15 08:10:59;;;;;;;2.53;1.10;;;;;;;15.77;46.02;95895.00;5089749;28;20510;-69
2021/05/15 08:13:24;;;;;;;2.30;1.10;;;;;;;15.47;46.58;95893.03;5095336;28;20527;-68
2021/05/15 08:15:51;;;;;;;1.80;1.10;;;;;;;15.77;45.88;95900.28;5088563;28;20182;-67
2021/05/15 08:18:16;;;;;;;1.67;1.13;;;;;;;16.29;44.91;95885.97;5086831;28;20225;-68
2021/05/15 08:20:42;;;;;;;2.50;1.00;;;;;;;15.76;45.70;95884.66;5094653;28;20420;-69
2021/05/15 08:23:08;;;;;;;1.60;1.10;;;;;;;15.91;45.31;95889.63;5088874;28;20174;-69
2021/05/15 08:25:33;;;;;;;2.40;1.33;;;;;;;16.16;44.87;95884.31;5097110;28;20675;-67
2021/05/15 08:28:03;;;;;;;2.90;1.30;;;;;;;16.20;44.97;95887.31;5093152;28;20214;-69
2021/05/15 08:30:29;;;;;;;2.70;1.10;;;;;;;15.94;45.13;95883.91;5098858;28;20182;-68
2021/05/15 08:32:55;;;;;;;4.33;1.10;;;;;;;16.20;44.79;95882.81;5096435;28;20973;-68
2021/05/15 08:35:22;;;;;;;2.40;0.87;;;;;;;15.88;44.77;95882.94;5089950;28;20973;-67
2021/05/15 08:37:47;;;;;;;1.50;1.10;;;;;;;15.93;45.84;95882.28;5090650;28;20543;-68
2021/05/15 08:40:13;;;;;;;3.33;1.00;;;;;;;16.16;45.10;95878.19;5088598;28;20447;-67
2021/05/15 08:42:41;;;;;;;1.90;1.23;;;;;;;16.06;45.42;95873.44;5097666;28;20182;-67
2021/05/15 08:45:10;;;;;;;4.73;1.40;;;;;;;16.43;44.33;95866.28;5095621;28;20426;-68
2021/05/15 08:47:40;;;;;;;2.03;1.00;;;;;;;16.28;44.66;95865.84;5077188;28;20562;-68
2021/05/15 08:50:09;;;;;;;1.10;0.83;;;;;;;16.42;44.41;95875.25;5095498;28;20428;-70
2021/05/15 08:52:39;;;;;;;4.00;1.00;;;;;;;16.50;44.11;95868.84;5085758;28;20952;-68
2021/05/15 08:55:13;;;;;;;1.40;1.10;;;;;;;16.28;44.72;95871.16;5085908;28;20435;-69
2021/05/15 08:57:39;;;;;;;2.13;1.10;;;;;;;16.27;44.67;95870.34;5095522;28;20447;-67
2021/05/15 09:00:16;;;;;;;2.30;1.10;;;;;;;16.15;44.63;95873.94;5084043;28;20432;-68
2021/05/15 09:02:43;;;;;;;1.77;1.10;;;;;;;16.13;44.66;95864.38;5089965;28;20412;-70
2021/05/15 09:05:10;;;;;;;2.40;1.30;;;;;;;15.05;47.41;95876.88;5094358;28;20492;-69
2021/05/15 09:07:36;;;;;;;1.20;0.97;;;;;;;16.11;45.53;95874.41;5096421;28;20440;-68
2021/05/15 09:10:07;;;;;;;1.30;1.20;;;;;;;16.05;45.23;95864.69;5086588;28;20427;-70
2021/05/15 09:12:32;;;;;;;1.50;1.10;;;;;;;16.53;44.54;95870.25;5089095;28;20574;-68
2021/05/15 09:15:00;;;;;;;2.40;1.10;;;;;;;17.01;43.58;95852.75;5091935;28;20503;-68
2021/05/15 09:17:26;;;;;;;5.33;1.30;;;;;;;17.61;42.18;95857.09;5095089;28;20227;-69
2021/05/15 09:19:54;;;;;;;1.93;1.30;;;;;;;16.97;43.06;95852.41;5086400;28;20427;-70
2021/05/15 09:22:26;;;;;;;1.90;1.30;;;;;;;17.71;41.67;95853.06;5078081;28;20218;-67
2021/05/15 09:24:52;;;;;;;7.00;1.20;;;;;;;18.22;40.82;95846.25;5095200;28;20484;-67
2021/05/15 09:27:18;;;;;;;2.30;1.20;;;;;;;18.01;41.47;95854.81;5091969;28;20432;-68
2021/05/15 09:29:49;;;;;;;2.87;1.03;;;;;;;18.32;40.47;95845.66;5082515;28;20440;-69
2021/05/15 09:32:27;;;;;;;1.67;1.10;;;;;;;18.65;40.18;95851.31;5093778;28;20997;-69
2021/05/15 09:34:54;;;;;;;3.63;1.20;;;;;;;17.15;42.49;95848.06;5094665;28;20432;-68
2021/05/15 09:37:31;;;;;;;4.40;1.23;;;;;;;16.76;43.55;95847.59;5095168;28;20452;-69
2021/05/15 09:40:09;;;;;;;1.10;1.00;;;;;;;17.66;42.19;95843.16;5086082;28;20188;-70
2021/05/15 09:42:44;;;;;;;1.83;1.30;;;;;;;17.00;42.69;95848.47;5093511;28;20483;-68
2021/05/15 09:45:18;;;;;;;6.20;1.10;;;;;;;16.74;43.15;95837.22;5095080;28;20464;-68
2021/05/15 09:47:54;;;;;;;3.77;1.30;;;;;;;17.00;42.74;95830.78;5094804;28;20443;-69
2021/05/15 09:50:22;;;;;;;4.27;1.10;;;;;;;16.19;44.14;95832.84;5094258;28;20407;-68
2021/05/15 09:52:48;;;;;;;2.00;1.20;;;;;;;16.43;43.25;95826.63;5096232;28;20471;-68
2021/05/15 09:55:14;;;;;;;3.10;1.80;;;;;;;16.67;43.19;95818.78;5096458;28;20525;-68
2021/05/15 09:57:40;;;;;;;1.63;1.23;;;;;;;17.32;41.93;95816.44;5091789;28;20418;-69
2021/05/15 10:00:13;;;;;;;1.80;1.60;;;;;;;17.28;41.84;95812.63;5094208;28;20455;-69
2021/05/15 10:02:39;;;;;;;3.87;1.30;;;;;;;17.56;41.09;95806.66;5099284;28;20416;-69
2021/05/15 10:05:12;;;;;;;3.20;1.20;;;;;;;17.23;41.67;95810.69;5096266;28;20423;-69
2021/05/15 10:07:38;;;;;;;1.00;0.90;;;;;;;17.00;41.71;95792.91;5094673;28;20220;-68
2021/05/15 10:10:06;;;;;;;2.03;1.20;;;;;;;16.81;43.02;95802.72;5087402;28;20427;-70
2021/05/15 10:12:36;;;;;;;2.03;1.40;;;;;;;16.91;42.24;95797.69;5086056;28;20508;-69
2021/05/15 10:15:04;;;;;;;2.00;1.10;;;;;;;17.16;40.58;95794.09;5091169;28;20476;-68
2021/05/15 10:17:30;;;;;;;2.20;1.27;;;;;;;17.08;41.18;95791.78;5087708;28;20448;-69
2021/05/15 10:19:56;;;;;;;3.70;1.37;;;;;;;17.58;40.42;95786.03;5093992;28;20472;-68
2021/05/15 10:22:22;;;;;;;9.07;3.80;;;;;;;17.88;38.78;95789.56;5092285;28;20286;-69
2021/05/15 10:24:49;;;;;;;8.03;2.70;;;;;;;18.16;38.31;95780.09;5095661;28;20244;-67
2021/05/15 10:27:16;;;;;;;3.10;1.30;;;;;;;17.51;39.47;95774.78;5092163;28;20247;-67
2021/05/15 10:29:53;;;;;;;3.63;1.50;;;;;;;17.90;39.27;95766.31;5088541;28;20431;-67
2021/05/15 10:32:18;;;;;;;2.30;1.10;;;;;;;18.54;38.17;95765.44;5094902;28;20460;-68
2021/05/15 10:34:45;;;;;;;5.33;1.10;;;;;;;18.71;37.72;95760.16;5082923;28;20832;-68
2021/05/15 10:37:18;;;;;;;8.40;1.40;;;;;;;19.01;36.26;95748.47;5092644;28;20709;-68
2021/05/15 10:39:45;;;;;;;2.20;1.20;;;;;;;18.05;38.04;95752.56;5092066;28;20491;-69
2021/05/15 10:42:11;;;;;;;1.67;1.40;;;;;;;19.08;37.15;95751.75;5093647;28;20455;-69
2021/05/15 10:44:42;;;;;;;2.77;1.10;;;;;;;18.73;36.65;95742.16;5093130;28;20786;-70
2021/05/15 10:47:08;;;;;;;1.50;1.00;;;;;;;18.88;35.93;95747.72;5091796;28;20443;-69
2021/05/15 10:49:34;;;;;;;1.67;0.90;;;;;;;18.86;35.29;95744.50;5077945;28;20423;-69
2021/05/15 10:52:13;;;;;;;3.27;0.90;;;;;;;18.83;35.27;95736.22;5080904;28;20260;-69
2021/05/15 10:54:43;;;;;;;2.57;1.27;;;;;;;18.75;35.51;95742.72;5092143;28;20500;-68
2021/05/15 10:57:14;;;;;;;2.60;1.20;;;;;;;17.88;36.74;95740.06;5081577;28;20449;-68
2021/05/15 10:59:54;;;;;;;2.10;1.30;;;;;;;17.39;37.48;95734.25;5079735;28;20430;-69
2021/05/15 11:02:21;;;;;;;3.30;1.27;;;;;;;17.46;38.02;95732.28;5067650;28;20450;-68
2021/05/15 11:04:54;;;;;;;3.73;1.43;;;;;;;16.95;38.32;95730.09;5093745;28;20492;-69
2021/05/15 11:07:40;;;;;;;1.97;1.30;;;;;;;16.61;38.79;95734.25;5070636;28;20809;-68
2021/05/15 11:10:09;;;;;;;2.10;1.20;;;;;;;16.42;39.07;95740.41;5081185;28;20511;-69
2021/05/15 11:12:42;;;;;;;3.73;1.10;;;;;;;16.61;39.12;95726.31;5092565;28;21056;-69
2021/05/15 11:15:16;;;;;;;4.83;1.27;;;;;;;17.09;38.64;95728.03;5091314;28;20419;-68
2021/05/15 11:17:42;;;;;;;2.70;1.23;;;;;;;17.10;38.63;95726.19;5085050;28;20770;-69
2021/05/15 11:20:13;;;;;;;2.57;1.10;;;;;;;17.86;37.61;95728.88;5093779;28;20432;-69
2021/05/15 11:22:54;;;;;;;1.67;1.03;;;;;;;17.86;37.42;95733.34;5089426;28;20516;-68
2021/05/15 11:25:27;;;;;;;5.03;1.57;;;;;;;17.27;38.38;95727.09;5066122;28;20847;-70
2021/05/15 11:27:58;;;;;;;2.63;1.30;;;;;;;18.06;36.90;95722.38;5086413;28;20853;-69
2021/05/15 11:30:47;;;;;;;2.83;1.23;;;;;;;17.25;37.83;95717.78;5079204;28;20419;-69
2021/05/15 11:33:16;;;;;;;3.67;1.20;;;;;;;17.37;38.19;95704.56;5094641;28;20821;-72
2021/05/15 11:35:47;;;;;;;1.40;1.00;;;;;;;17.62;37.36;95697.16;5093270;28;20880;-69